Port Heiden, AK

2:32 PM AKST on February 24, 2017 (GMT -0900)
Port Heiden

Weather History for PAPH - July, 2013

Change the Weather History Date:

Sunday, July 7, 2013

  Actual Average Record
Temperature  
Mean Temperature 45 °F -  
Max Temperature 48 °F 55 °F 64 °F (1996)
Min Temperature 42 °F 43 °F 39 °F (2003)
Degree Days  
Heating Degree Days 20    
Moisture  
Dew Point 39 °F    
Average Humidity 78    
Maximum Humidity 81    
Minimum Humidity 66    
Precipitation  
Precipitation 0.01 in - - ()
Sea Level Pressure  
Sea Level Pressure 29.74 in    
Wind  
Wind Speed 9 mph (WSW)    
Max Wind Speed 24 mph    
Max Gust Speed 30 mph    
Visibility 9 miles    
Events      
Averages and records for this station are not official NWS values.
T = Trace of Precipitation, MM = Missing Value Source: NWS Daily Summary

Daily Weather History Graph

Daily Weather History Graph

Search for Another Location

Airport or City:

Trip Planner

Search our weather history database for the weather conditions in past years. The results will help you decide how hot, cold, wet, or windy it might be!

Date:

Astronomy

Jul. 07, 2013 Rise Set
Actual Time 5:52 AM AKDT 11:25 PM AKDT
Civil Twilight 4:48 AM AKDT 12:29 AM AKDT
Nautical Twilight 3:11 AM AKDT 2:07 AM AKDT
Astronomical Twilight Sun does not rise Sun does not rise
Moon 5:55 AM AKDT (7/7) 10:35 PM AKDT (7/7)
Length of Visible Light 19h 40m
Length of Day
17h 33m
Waning Crescent, 0% of the Moon is Illuminated
Jul 7
Waning Crescent
Jul 7
New
Jul 15
First Quarter
Jul 22
Full
Jul 29
Last Quarter

Hourly Weather History & Observations

Time (AKDT) Temp. Windchill Dew Point Humidity Pressure Visibility Wind Dir Wind Speed Gust Speed Precip Events Conditions
12:16 AM 44.6 °F 43.1 °F 39.2 °F 81% 29.66 in 10.0 mi SSW 3.5 mph - N/A   Overcast
12:36 AM 44.6 °F 42.2 °F 39.2 °F 81% 29.66 in 10.0 mi SW 4.6 mph - N/A   Overcast
12:56 AM 44.6 °F 42.2 °F 39.2 °F 81% 29.66 in 10.0 mi SSW 4.6 mph - N/A   Overcast
1:16 AM 44.6 °F 43.1 °F 39.2 °F 81% 29.66 in 6.0 mi South 3.5 mph - N/A   Overcast
1:36 AM 44.6 °F 42.2 °F 39.2 °F 81% 29.65 in 6.0 mi South 4.6 mph - N/A   Overcast
1:56 AM 44.6 °F 42.2 °F 39.2 °F 81% 29.65 in 10.0 mi South 4.6 mph - N/A   Overcast
2:16 AM 44.6 °F 41.4 °F 39.2 °F 81% 29.65 in 9.0 mi SW 5.8 mph - N/A   Overcast
2:36 AM 44.6 °F 41.4 °F 39.2 °F 81% 29.66 in 10.0 mi SW 5.8 mph - N/A   Overcast
2:56 AM 44.6 °F 41.4 °F 37.4 °F 76% 29.65 in 10.0 mi WSW 5.8 mph - N/A   Mostly Cloudy
3:16 AM 44.6 °F 43.1 °F 37.4 °F 76% 29.65 in 10.0 mi SW 3.5 mph - 0.01 in   Overcast
3:36 AM 44.6 °F 43.1 °F 37.4 °F 76% 29.65 in 10.0 mi South 3.5 mph - 0.01 in   Mostly Cloudy
3:56 AM 44.6 °F 42.2 °F 37.4 °F 76% 29.64 in 10.0 mi SSW 4.6 mph - 0.01 in   Overcast
4:16 AM 44.6 °F 42.2 °F 37.4 °F 76% 29.64 in 10.0 mi SW 4.6 mph - N/A   Mostly Cloudy
4:36 AM 44.6 °F 41.4 °F 37.4 °F 76% 29.64 in 10.0 mi WSW 5.8 mph - N/A   Overcast
4:56 AM 44.6 °F 42.2 °F 39.2 °F 81% 29.64 in 10.0 mi WSW 4.6 mph - N/A   Mostly Cloudy
5:16 AM 44.6 °F 41.4 °F 37.4 °F 76% 29.64 in 10.0 mi WSW 5.8 mph - N/A   Overcast
5:36 AM 44.6 °F 42.2 °F 37.4 °F 76% 29.64 in 10.0 mi WSW 4.6 mph - N/A   Overcast
5:56 AM 44.6 °F 42.2 °F 39.2 °F 81% 29.64 in 10.0 mi WSW 4.6 mph - N/A   Overcast
6:16 AM 44.6 °F 43.1 °F 39.2 °F 81% 29.64 in 6.0 mi South 3.5 mph - N/A   Overcast
6:36 AM 44.6 °F 43.1 °F 39.2 °F 81% 29.64 in 9.0 mi South 3.5 mph - 0.01 in   Overcast
6:56 AM 44.6 °F 41.4 °F 39.2 °F 81% 29.64 in 10.0 mi SW 5.8 mph - 0.01 in   Overcast
7:16 AM 44.6 °F 41.4 °F 39.2 °F 81% 29.65 in 10.0 mi SW 5.8 mph - N/A   Overcast
7:36 AM 44.6 °F 41.4 °F 39.2 °F 81% 29.65 in 10.0 mi WSW 5.8 mph - N/A   Overcast
7:56 AM 44.6 °F 41.4 °F 39.2 °F 81% 29.65 in 10.0 mi SW 5.8 mph - N/A   Overcast
8:16 AM 44.6 °F 40.2 °F 39.2 °F 81% 29.66 in 10.0 mi WSW 8.1 mph - N/A   Overcast
8:36 AM 44.6 °F 40.2 °F 39.2 °F 81% 29.66 in 10.0 mi SW 8.1 mph - N/A   Overcast
8:56 AM 44.6 °F 40.7 °F 39.2 °F 81% 29.66 in 10.0 mi West 6.9 mph - N/A   Overcast
9:16 AM 44.6 °F 40.2 °F 39.2 °F 81% 29.67 in 10.0 mi WSW 8.1 mph - N/A   Overcast
9:36 AM 44.6 °F 39.7 °F 39.2 °F 81% 29.67 in 10.0 mi WSW 9.2 mph - N/A   Mostly Cloudy
9:56 AM 46.4 °F 41.5 °F 39.2 °F 76% 29.67 in 10.0 mi WSW 10.4 mph - N/A   Overcast
10:16 AM 46.4 °F 40.7 °F 39.2 °F 76% 29.68 in 10.0 mi West 12.7 mph - N/A   Overcast
10:36 AM 46.4 °F 40.4 °F 39.2 °F 76% 29.69 in 10.0 mi West 13.8 mph - N/A   Overcast
10:56 AM 44.6 °F 38.4 °F 39.2 °F 81% 29.70 in 10.0 mi West 12.7 mph - N/A   Overcast
11:16 AM 44.6 °F 38.4 °F 39.2 °F 81% 29.70 in 10.0 mi West 12.7 mph - N/A   Overcast
11:36 AM 44.6 °F 38.4 °F 39.2 °F 81% 29.70 in 9.0 mi West 12.7 mph - N/A   Overcast
11:56 AM 46.4 °F 41.9 °F 39.2 °F 76% 29.71 in 10.0 mi West 9.2 mph - N/A   Overcast
12:16 PM 46.4 °F 41.9 °F 39.2 °F 76% 29.71 in 10.0 mi West 9.2 mph - N/A   Overcast
12:36 PM 46.4 °F 41.9 °F 39.2 °F 76% 29.72 in 10.0 mi West 9.2 mph - N/A   Overcast
12:56 PM 46.4 °F 40.7 °F 39.2 °F 76% 29.73 in 10.0 mi West 12.7 mph - N/A   Overcast
1:16 PM 46.4 °F 40.7 °F 39.2 °F 76% 29.74 in 10.0 mi West 12.7 mph - N/A   Overcast
1:36 PM 46.4 °F 40.4 °F 39.2 °F 76% 29.75 in 10.0 mi West 13.8 mph - N/A   Overcast
1:56 PM 46.4 °F 40.1 °F 39.2 °F 76% 29.76 in 10.0 mi West 15.0 mph - N/A   Overcast
2:16 PM 44.6 °F 38.1 °F 37.4 °F 76% 29.76 in 10.0 mi West 13.8 mph - N/A   Overcast
2:36 PM 46.4 °F 40.4 °F 39.2 °F 76% 29.77 in 10.0 mi West 13.8 mph - N/A   Overcast
2:56 PM 46.4 °F 40.1 °F 39.2 °F 76% 29.77 in 10.0 mi West 15.0 mph - N/A   Overcast
3:16 PM 46.4 °F 40.4 °F 39.2 °F 76% 29.78 in 10.0 mi WSW 13.8 mph - N/A   Overcast
3:36 PM 48.2 °F - 39.2 °F 71% 29.78 in 10.0 mi WSW 15.0 mph - N/A   Overcast
3:56 PM 46.4 °F 39.8 °F 39.2 °F 76% 29.79 in 10.0 mi WSW 16.1 mph 20.7 mph N/A   Overcast
4:16 PM 46.4 °F 39.5 °F 39.2 °F 76% 29.79 in 5.0 mi WSW 17.3 mph 20.7 mph N/A   Overcast
4:36 PM 46.4 °F 39.8 °F 39.2 °F 76% 29.79 in 10.0 mi WSW 16.1 mph 21.9 mph N/A   Overcast
4:56 PM 46.4 °F 39.5 °F 39.2 °F 76% 29.80 in 10.0 mi West 17.3 mph - N/A   Overcast
5:16 PM 46.4 °F 39.2 °F 39.2 °F 76% 29.80 in 10.0 mi West 18.4 mph 21.9 mph N/A   Overcast
5:36 PM 48.2 °F - 39.2 °F 71% 29.81 in 10.0 mi West 19.6 mph 24.2 mph N/A   Overcast
5:56 PM 48.2 °F - 39.2 °F 71% 29.82 in 10.0 mi West 19.6 mph 24.2 mph N/A   Overcast
6:16 PM 48.2 °F - 39.2 °F 71% 29.82 in 10.0 mi WSW 19.6 mph 24.2 mph N/A   Overcast
6:36 PM 46.4 °F 38.5 °F 39.2 °F 76% 29.83 in 3.0 mi West 21.9 mph 26.5 mph N/A   Overcast
6:56 PM 44.6 °F 36.9 °F 39.2 °F 81% 29.83 in 3.0 mi WSW 18.4 mph 23.0 mph N/A   Overcast
7:16 PM 44.6 °F 36.6 °F 39.2 °F 81% 29.83 in 10.0 mi WSW 19.6 mph 24.2 mph N/A   Overcast
7:36 PM 44.6 °F 36.9 °F 39.2 °F 81% 29.84 in 1.2 mi West 18.4 mph 24.2 mph N/A   Overcast
7:56 PM 44.6 °F 36.6 °F 39.2 °F 81% 29.85 in 6.0 mi West 19.6 mph 26.5 mph N/A   Overcast
8:16 PM 44.6 °F 36.6 °F 37.4 °F 76% 29.85 in 10.0 mi West 19.6 mph - N/A   Overcast
8:36 PM 44.6 °F 36.6 °F 37.4 °F 76% 29.86 in 10.0 mi West 19.6 mph 24.2 mph N/A   Overcast
8:56 PM 44.6 °F 37.2 °F 37.4 °F 76% 29.86 in 10.0 mi West 17.3 mph 25.3 mph N/A   Overcast
9:16 PM 42.8 °F 33.8 °F 37.4 °F 81% 29.86 in 8.0 mi WSW 21.9 mph 26.5 mph N/A   Overcast
9:36 PM 42.8 °F 34.3 °F 37.4 °F 81% 29.87 in 8.0 mi WSW 19.6 mph 26.5 mph N/A   Overcast
9:56 PM 42.8 °F 34.5 °F 37.4 °F 81% 29.87 in 8.0 mi West 18.4 mph 25.3 mph N/A   Overcast
10:16 PM 42.8 °F 34.3 °F 37.4 °F 81% 29.88 in 10.0 mi WSW 19.6 mph 26.5 mph N/A   Overcast
10:36 PM 42.8 °F 33.8 °F 37.4 °F 81% 29.89 in 8.0 mi WSW 21.9 mph 28.8 mph N/A   Overcast
10:56 PM 44.6 °F 36.9 °F 37.4 °F 76% 29.89 in 10.0 mi WSW 18.4 mph 26.5 mph N/A   Overcast
11:16 PM 44.6 °F 36.9 °F 37.4 °F 76% 29.89 in 10.0 mi WSW 18.4 mph 25.3 mph N/A   Overcast
11:36 PM 44.6 °F 37.8 °F 37.4 °F 76% 29.90 in 10.0 mi WSW 15.0 mph 28.8 mph N/A   Overcast
11:56 PM 44.6 °F 35.7 °F 37.4 °F 76% 29.91 in 10.0 mi West 24.2 mph 29.9 mph N/A   Overcast